createdAt,value
2022-08-23T00:01:34.855Z,99.90
2022-08-23T00:04:09.893Z,99.90
2022-08-23T00:06:39.591Z,99.90
2022-08-23T00:09:06.765Z,99.90
2022-08-23T00:11:47.383Z,99.90
2022-08-23T00:14:21.425Z,99.90
2022-08-23T00:16:48.692Z,99.90
2022-08-23T00:19:16.941Z,99.90
2022-08-23T00:21:44.886Z,99.90
2022-08-23T00:24:13.834Z,99.90
2022-08-23T01:19:52.195Z,99.90
2022-08-23T01:22:34.245Z,99.90
2022-08-23T01:25:07.092Z,99.90
2022-08-23T01:27:36.351Z,99.90
2022-08-23T01:30:05.762Z,99.90
2022-08-23T01:32:37.360Z,99.90
2022-08-23T01:35:04.835Z,99.90
2022-08-23T01:37:31.732Z,99.90
2022-08-23T01:39:58.552Z,99.90
2022-08-23T01:42:25.333Z,99.90
2022-08-23T01:44:52.061Z,99.90
2022-08-23T01:47:18.920Z,99.90
2022-08-23T01:49:45.684Z,99.90
2022-08-23T01:52:12.572Z,99.90
2022-08-23T01:54:40.856Z,99.90
2022-08-23T01:57:08.253Z,99.90
2022-08-23T01:59:35.117Z,99.90
2022-08-23T02:02:02.812Z,99.90
2022-08-23T02:04:30.528Z,99.90
2022-08-23T02:06:57.304Z,99.90
2022-08-23T02:09:25.533Z,99.90
2022-08-23T02:11:52.601Z,99.90
2022-08-23T02:14:20.761Z,99.90
2022-08-23T02:16:59.970Z,99.90
2022-08-23T02:19:35.653Z,99.90
2022-08-23T02:22:03.373Z,99.90
2022-08-23T02:24:31.784Z,99.90
2022-08-23T02:27:02.783Z,99.90
2022-08-23T02:29:29.934Z,99.90
2022-08-23T02:31:58.773Z,99.90
2022-08-23T02:34:27.542Z,99.90
2022-08-23T02:36:55.052Z,99.90
2022-08-23T02:39:22.473Z,99.90
2022-08-23T02:41:49.845Z,99.90
2022-08-23T02:44:16.752Z,99.90
2022-08-23T02:46:43.694Z,99.90
2022-08-23T02:49:10.583Z,99.90
2022-08-23T02:51:38.452Z,99.90
2022-08-23T02:54:06.068Z,99.90
2022-08-23T02:56:33.926Z,99.90
2022-08-23T02:59:00.763Z,99.90
2022-08-23T03:01:33.885Z,99.90
2022-08-23T03:04:01.885Z,99.90
2022-08-23T03:06:30.459Z,99.90
2022-08-23T03:08:57.687Z,99.90
2022-08-23T03:11:25.151Z,99.90
2022-08-23T03:13:53.216Z,99.90
2022-08-23T03:16:20.533Z,99.90
2022-08-23T03:18:47.885Z,99.90
2022-08-23T03:21:17.422Z,99.90
2022-08-23T03:23:44.247Z,99.90
2022-08-23T03:26:13.233Z,99.90
2022-08-23T03:28:42.129Z,99.90
2022-08-23T03:31:10.461Z,99.90
2022-08-23T03:33:37.251Z,99.90
2022-08-23T03:36:06.462Z,99.90
2022-08-23T03:38:34.322Z,99.90
2022-08-23T03:41:01.541Z,99.90
2022-08-23T03:43:28.910Z,99.90
2022-08-23T03:45:56.457Z,99.90
2022-08-23T03:48:23.532Z,99.90
2022-08-23T03:50:50.316Z,99.90
2022-08-23T03:53:23.743Z,99.90
2022-08-23T03:55:53.319Z,99.90
2022-08-23T03:58:21.592Z,99.90
2022-08-23T04:00:49.145Z,99.90
2022-08-23T04:03:16.329Z,99.90
2022-08-23T04:05:43.550Z,99.90
2022-08-23T04:08:11.288Z,99.90
2022-08-23T04:10:39.171Z,99.90
2022-08-23T04:13:09.056Z,99.90
2022-08-23T04:15:36.612Z,99.90
2022-08-23T04:18:04.094Z,99.90
2022-08-23T04:20:31.027Z,99.90
2022-08-23T04:22:58.291Z,99.90
2022-08-23T04:25:34.944Z,99.90
2022-08-23T04:28:03.631Z,99.90
2022-08-23T04:30:31.405Z,99.90
2022-08-23T04:32:58.531Z,99.90
2022-08-23T04:35:26.612Z,99.90
2022-08-23T04:37:54.065Z,99.90
2022-08-23T04:40:39.624Z,99.90
2022-08-23T04:43:08.739Z,99.90
2022-08-23T04:45:39.135Z,99.90
2022-08-23T04:48:06.981Z,99.90
2022-08-23T04:50:40.755Z,99.90
2022-08-23T04:53:07.740Z,99.90
2022-08-23T04:55:36.627Z,99.90
2022-08-23T04:58:04.090Z,99.90
2022-08-23T05:00:30.975Z,99.90
2022-08-23T05:02:58.059Z,99.90
2022-08-23T05:05:24.889Z,99.90
2022-08-23T05:07:51.764Z,99.90
2022-08-23T05:10:19.652Z,99.90
2022-08-23T05:12:46.625Z,99.90
2022-08-23T05:15:13.610Z,99.90
2022-08-23T05:17:40.561Z,99.90
2022-08-23T05:20:08.676Z,99.90
2022-08-23T05:22:37.613Z,99.90
2022-08-23T05:25:05.384Z,99.90
2022-08-23T05:27:32.189Z,99.90
2022-08-23T05:29:59.133Z,99.90
2022-08-23T05:32:27.655Z,99.90
2022-08-23T05:34:56.187Z,99.90
2022-08-23T05:37:23.036Z,99.90
2022-08-23T05:39:49.810Z,99.90
2022-08-23T05:42:16.996Z,99.90
2022-08-23T05:44:44.245Z,99.90
2022-08-23T05:47:15.710Z,99.90
2022-08-23T05:49:43.299Z,99.90
2022-08-23T05:52:14.668Z,99.90
2022-08-23T05:54:42.037Z,99.90
2022-08-23T05:57:10.533Z,99.90
2022-08-23T05:59:37.540Z,99.90
2022-08-23T06:02:04.600Z,99.90
2022-08-23T06:04:31.444Z,99.90
2022-08-23T06:06:58.955Z,99.90
2022-08-23T06:09:26.440Z,99.90
2022-08-23T06:11:53.967Z,99.90
2022-08-23T06:14:21.011Z,99.90
2022-08-23T06:16:54.907Z,99.90
2022-08-23T06:19:22.827Z,99.90
2022-08-23T06:21:51.284Z,99.90
2022-08-23T06:24:18.681Z,99.90
2022-08-23T06:26:47.424Z,99.90
2022-08-23T06:29:17.707Z,99.90
2022-08-23T06:31:48.045Z,99.90
2022-08-23T06:34:18.498Z,99.90
2022-08-23T06:36:50.380Z,99.90
2022-08-23T06:39:18.869Z,99.90
2022-08-23T06:41:48.549Z,99.90
2022-08-23T06:44:17.060Z,99.90
2022-08-23T06:46:44.717Z,99.90
2022-08-23T06:49:11.695Z,99.90
2022-08-23T06:51:44.822Z,99.90
2022-08-23T06:54:14.551Z,99.90
2022-08-23T06:56:45.093Z,99.90
2022-08-23T06:59:12.372Z,99.90
2022-08-23T07:01:54.939Z,99.90
2022-08-23T07:04:30.859Z,99.90
2022-08-23T07:06:59.042Z,99.90
2022-08-23T07:09:27.168Z,99.90
2022-08-23T07:11:54.775Z,99.90
2022-08-23T07:14:22.970Z,99.90
2022-08-23T07:16:59.565Z,99.90
2022-08-23T07:19:29.494Z,99.90
2022-08-23T07:21:58.377Z,99.90
2022-08-23T07:24:30.626Z,99.90
2022-08-23T07:27:01.278Z,99.90
2022-08-23T07:29:28.479Z,99.90
2022-08-23T07:31:56.472Z,99.90
2022-08-23T07:34:25.000Z,99.90
2022-08-23T07:36:53.013Z,99.90
2022-08-23T07:39:20.974Z,99.90
2022-08-23T07:41:47.999Z,99.90
2022-08-23T07:44:18.126Z,99.90
2022-08-23T07:46:46.893Z,99.90
2022-08-23T07:49:14.516Z,99.90
2022-08-23T07:51:45.534Z,99.90
2022-08-23T07:54:13.073Z,99.90
2022-08-23T07:56:40.710Z,99.90
2022-08-23T07:59:09.661Z,99.90
2022-08-23T08:01:37.943Z,99.90
2022-08-23T08:04:06.394Z,99.90
2022-08-23T08:06:38.583Z,99.90
2022-08-23T08:09:06.077Z,99.90
2022-08-23T08:11:35.389Z,99.90
2022-08-23T08:14:08.344Z,99.90
2022-08-23T08:16:42.263Z,99.90
2022-08-23T08:19:11.595Z,99.90
2022-08-23T08:21:42.417Z,99.90
2022-08-23T08:24:12.857Z,99.90
2022-08-23T08:26:41.451Z,99.90
2022-08-23T08:29:12.009Z,99.90
2022-08-23T08:31:41.142Z,99.90
2022-08-23T08:34:08.967Z,99.90
2022-08-23T08:36:46.561Z,99.90
2022-08-23T08:39:19.269Z,99.90
2022-08-23T08:42:03.845Z,99.90
2022-08-23T08:44:51.237Z,99.90
2022-08-23T08:47:37.301Z,99.90
2022-08-23T08:50:07.198Z,99.90
2022-08-23T08:52:46.859Z,99.90
2022-08-23T08:55:25.220Z,99.90
2022-08-23T08:57:55.048Z,99.90
2022-08-23T09:00:42.195Z,99.90
2022-08-23T09:03:16.882Z,99.90
2022-08-23T09:05:57.300Z,99.90
2022-08-23T09:09:09.047Z,99.90
2022-08-23T09:11:45.666Z,99.90
2022-08-23T09:14:58.682Z,99.90
2022-08-23T09:17:44.085Z,99.90
2022-08-23T09:20:14.155Z,99.90
2022-08-23T09:22:46.002Z,99.90
2022-08-23T09:25:14.956Z,99.90
2022-08-23T09:27:43.759Z,99.90
2022-08-23T09:30:13.626Z,99.60
2022-08-23T09:32:44.247Z,99.50
2022-08-23T09:35:22.199Z,98.90
2022-08-23T09:38:21.550Z,98.80
2022-08-23T09:40:50.838Z,99.50
2022-08-23T09:43:26.966Z,98.70
2022-08-23T09:45:56.049Z,99.10
2022-08-23T09:48:43.733Z,99.10
2022-08-23T09:51:17.525Z,97.00
2022-08-23T09:53:50.270Z,97.20
2022-08-23T09:56:27.855Z,97.30
2022-08-23T09:58:54.748Z,97.20
2022-08-23T10:01:26.032Z,96.50
2022-08-23T10:04:47.170Z,97.10
2022-08-23T10:07:38.689Z,97.50
2022-08-23T10:10:15.454Z,97.70
2022-08-23T10:12:42.833Z,96.60
2022-08-23T10:15:10.034Z,96.40
2022-08-23T10:18:13.586Z,95.80
2022-08-23T10:20:49.487Z,96.40
2022-08-23T10:23:56.865Z,96.50
2022-08-23T10:26:35.330Z,94.70
2022-08-23T10:29:37.493Z,95.20
2022-08-23T10:32:36.690Z,94.50
2022-08-23T10:35:21.654Z,95.40
2022-08-23T10:37:48.360Z,94.90
2022-08-23T10:40:28.776Z,95.30
2022-08-23T10:43:08.998Z,95.70
2022-08-23T10:45:37.878Z,95.10
2022-08-23T10:48:10.538Z,95.30
2022-08-23T10:50:52.041Z,95.10
2022-08-23T10:53:32.159Z,94.50
2022-08-23T10:56:03.387Z,94.00
2022-08-23T10:58:43.498Z,93.40
2022-08-23T11:01:18.202Z,92.90
2022-08-23T11:03:52.861Z,93.20
2022-08-23T11:06:37.749Z,92.90
2022-08-23T11:09:31.176Z,91.00
2022-08-23T11:12:24.629Z,91.10
2022-08-23T11:14:58.033Z,91.10
2022-08-23T11:17:34.824Z,91.30
2022-08-23T11:20:07.572Z,90.50
2022-08-23T11:22:57.176Z,88.80
2022-08-23T11:25:23.953Z,89.50
2022-08-23T11:27:50.768Z,91.10
2022-08-23T11:30:33.109Z,90.10
2022-08-23T11:33:18.635Z,91.50
2022-08-23T11:35:50.615Z,91.40
2022-08-23T11:38:38.515Z,90.60
2022-08-23T11:41:20.795Z,90.20
2022-08-23T11:44:10.687Z,89.30
2022-08-23T11:46:48.714Z,88.40
2022-08-23T11:49:30.677Z,84.60
2022-08-23T11:52:25.183Z,87.30
2022-08-23T11:55:21.108Z,83.40
2022-08-23T11:57:58.508Z,83.40
2022-08-23T12:00:29.336Z,86.50
2022-08-23T12:03:05.653Z,86.00
2022-08-23T12:05:38.635Z,81.50
2022-08-23T12:08:08.556Z,82.80
2022-08-23T12:10:41.339Z,80.30
2022-08-23T12:13:22.435Z,80.60
2022-08-23T12:16:16.683Z,84.50
2022-08-23T12:18:51.303Z,78.40
2022-08-23T12:21:49.423Z,78.10
2022-08-23T12:24:25.810Z,77.30
2022-08-23T12:26:59.252Z,75.10
2022-08-23T12:30:03.283Z,77.00
2022-08-23T12:32:58.346Z,75.20
2022-08-23T12:35:34.832Z,75.40
2022-08-23T12:38:29.322Z,72.00
2022-08-23T12:40:56.770Z,72.10
2022-08-23T12:43:28.637Z,72.40
2022-08-23T12:45:59.027Z,67.80
2022-08-23T12:48:30.072Z,67.10
2022-08-23T12:51:08.341Z,67.40
2022-08-23T12:53:44.047Z,71.40
2022-08-23T12:56:22.856Z,63.80
2022-08-23T12:59:04.923Z,64.20
2022-08-23T13:01:36.655Z,63.60
2022-08-23T13:04:13.553Z,59.90
2022-08-23T13:06:49.492Z,61.30
2022-08-23T13:09:24.587Z,60.00
2022-08-23T13:11:52.361Z,59.10
2022-08-23T13:14:26.229Z,58.10
2022-08-23T13:17:12.594Z,59.90
2022-08-23T13:19:39.571Z,56.30
2022-08-23T13:22:19.405Z,56.70
2022-08-23T13:28:03.921Z,53.10
2022-08-23T13:30:33.736Z,51.30
2022-08-23T13:33:09.159Z,51.30
2022-08-23T13:35:40.315Z,50.20
2022-08-23T13:38:18.262Z,48.40
2022-08-23T13:41:29.132Z,49.00
2022-08-23T13:43:56.144Z,49.50
2022-08-23T13:46:29.249Z,48.90
2022-08-23T13:49:02.416Z,46.70
2022-08-23T13:51:31.280Z,47.40
2022-08-23T13:54:00.858Z,47.90
2022-08-23T13:56:29.584Z,49.10
2022-08-23T13:59:07.701Z,49.10
2022-08-23T14:01:40.077Z,47.70
2022-08-23T14:04:07.836Z,47.60
2022-08-23T14:06:34.787Z,48.10
2022-08-23T14:09:01.599Z,48.40
2022-08-23T14:11:28.667Z,46.30
2022-08-23T14:13:55.574Z,46.50
2022-08-23T14:16:39.873Z,48.90
2022-08-23T14:19:54.739Z,48.00
2022-08-23T14:21:59.147Z,46.20
2022-08-23T14:24:27.266Z,46.70
2022-08-23T14:26:56.124Z,45.70
2022-08-23T14:29:24.635Z,45.50
2022-08-23T14:31:52.761Z,46.30
2022-08-23T14:34:20.408Z,45.70
2022-08-23T14:39:35.521Z,45.50
2022-08-23T14:42:03.229Z,45.40
2022-08-23T14:44:35.736Z,44.70
2022-08-23T14:47:03.392Z,44.50
2022-08-23T14:49:30.080Z,45.30
2022-08-23T14:51:56.873Z,47.40
2022-08-23T14:54:26.070Z,49.70
2022-08-23T14:56:53.521Z,50.20
2022-08-23T14:59:20.668Z,52.10
2022-08-23T15:01:50.267Z,51.80
2022-08-23T15:04:19.863Z,53.40
2022-08-23T15:07:14.080Z,56.00
2022-08-23T15:09:34.486Z,56.70
2022-08-23T15:14:48.064Z,51.80
2022-08-23T15:17:14.965Z,49.60
2022-08-23T15:19:41.715Z,47.80
2022-08-23T15:22:15.860Z,47.60
2022-08-23T15:24:46.153Z,46.90
2022-08-23T15:27:12.916Z,45.50
2022-08-23T15:29:41.859Z,45.70
2022-08-23T15:32:10.123Z,45.40
2022-08-23T15:34:40.133Z,44.60
2022-08-23T15:37:12.899Z,44.70
2022-08-23T15:39:39.632Z,45.80
2022-08-23T15:42:06.746Z,45.80
2022-08-23T15:44:33.503Z,47.00
2022-08-23T15:47:00.440Z,45.40
2022-08-23T15:49:31.754Z,46.10
2022-08-23T15:52:02.107Z,46.20
2022-08-23T15:54:29.005Z,48.40
2022-08-23T15:56:55.776Z,47.70
2022-08-23T15:59:22.632Z,48.20
2022-08-23T16:01:49.497Z,48.30
2022-08-23T16:04:16.270Z,48.30
2022-08-23T16:06:45.082Z,48.50
2022-08-23T16:09:20.069Z,49.30
2022-08-23T16:11:46.852Z,51.20
2022-08-23T16:14:13.744Z,51.10
2022-08-23T16:16:42.096Z,51.30
2022-08-23T16:19:09.965Z,51.50
2022-08-23T16:21:36.766Z,52.00
2022-08-23T16:24:04.348Z,52.40
2022-08-23T16:26:35.457Z,52.60
2022-08-23T16:29:07.563Z,53.50
2022-08-23T16:31:38.478Z,55.00
2022-08-23T16:34:08.908Z,53.50
2022-08-23T16:36:36.020Z,54.80
2022-08-23T16:39:03.672Z,54.70
2022-08-23T16:41:30.371Z,54.70
2022-08-23T16:43:57.148Z,54.90
2022-08-23T16:46:24.543Z,54.90
2022-08-23T16:48:51.554Z,55.80
2022-08-23T16:51:21.745Z,55.30
2022-08-23T16:54:02.114Z,55.60
2022-08-23T16:56:31.511Z,56.10
2022-08-23T16:58:58.814Z,56.40
2022-08-23T17:01:25.938Z,57.30
2022-08-23T17:03:52.779Z,57.90
2022-08-23T17:06:19.851Z,58.00
2022-08-23T17:08:46.951Z,59.50
2022-08-23T17:11:17.382Z,59.00
2022-08-23T17:13:44.515Z,59.00
2022-08-23T17:16:11.598Z,58.60
2022-08-23T17:18:38.970Z,58.20
2022-08-23T17:21:06.717Z,58.90
2022-08-23T17:23:34.045Z,60.00
2022-08-23T17:26:08.252Z,60.30
2022-08-23T17:28:35.228Z,59.70
2022-08-23T17:31:02.155Z,58.70
2022-08-23T17:33:28.987Z,58.10
2022-08-23T17:35:55.725Z,58.00
2022-08-23T17:38:22.575Z,58.30
2022-08-23T17:40:49.494Z,58.80
2022-08-23T17:43:16.274Z,58.80
2022-08-23T17:45:48.122Z,59.50
2022-08-23T17:48:17.495Z,59.40
2022-08-23T17:50:46.090Z,59.70
2022-08-23T17:53:14.320Z,59.30
2022-08-23T17:55:42.042Z,60.50
2022-08-23T17:58:10.317Z,61.40
2022-08-23T18:00:39.360Z,61.90
2022-08-23T18:03:06.806Z,62.90
2022-08-23T18:05:34.677Z,63.30
2022-08-23T18:08:01.656Z,64.30
2022-08-23T18:10:29.978Z,64.40
2022-08-23T18:12:57.548Z,64.90
2022-08-23T18:15:24.705Z,65.80
2022-08-23T18:17:52.245Z,65.20
2022-08-23T18:20:25.337Z,64.70
2022-08-23T18:22:53.679Z,64.10
2022-08-23T18:25:20.475Z,63.10
2022-08-23T18:28:05.910Z,63.00
2022-08-23T18:30:37.903Z,63.50
2022-08-23T18:33:06.605Z,63.80
2022-08-23T18:35:34.517Z,64.50
2022-08-23T18:38:01.288Z,63.90
2022-08-23T18:40:29.333Z,63.60
2022-08-23T18:42:56.691Z,63.50
2022-08-23T18:45:23.675Z,63.80
2022-08-23T18:47:50.401Z,64.00
2022-08-23T18:50:17.985Z,64.00
2022-08-23T18:52:44.838Z,65.70
2022-08-23T18:55:11.636Z,66.00
2022-08-23T18:57:39.028Z,65.00
2022-08-23T19:00:07.739Z,66.60
2022-08-23T19:02:34.992Z,66.00
2022-08-23T19:05:03.232Z,65.30
2022-08-23T19:07:29.990Z,65.50
2022-08-23T19:09:56.736Z,65.90
2022-08-23T19:12:23.660Z,66.10
2022-08-23T19:14:50.466Z,66.50
2022-08-23T19:17:17.309Z,66.00
2022-08-23T19:19:44.052Z,66.90
2022-08-23T19:22:10.860Z,67.10
2022-08-23T19:24:37.625Z,68.20
2022-08-23T19:27:04.669Z,67.40
2022-08-23T19:29:31.882Z,66.90
2022-08-23T19:31:58.792Z,67.20
2022-08-23T19:34:25.856Z,68.50
2022-08-23T19:37:00.671Z,67.40
2022-08-23T19:39:29.025Z,66.60
2022-08-23T19:41:55.853Z,67.90
2022-08-23T19:44:23.195Z,67.90
2022-08-23T19:46:50.207Z,67.90
2022-08-23T19:49:17.044Z,67.60
2022-08-23T19:51:44.512Z,67.40
2022-08-23T19:54:12.619Z,67.10
2022-08-23T19:56:46.698Z,69.50
2022-08-23T19:59:20.495Z,70.00
2022-08-23T20:01:49.199Z,70.80
2022-08-23T20:04:16.926Z,69.80
2022-08-23T20:06:43.678Z,69.70
2022-08-23T20:09:11.305Z,69.70
2022-08-23T20:11:38.442Z,71.50
2022-08-23T20:14:05.910Z,71.30
2022-08-23T20:16:33.112Z,71.60
2022-08-23T20:19:00.483Z,70.50
2022-08-23T20:21:27.367Z,70.30
2022-08-23T20:24:06.400Z,71.40
2022-08-23T20:26:40.882Z,71.30
2022-08-23T20:29:13.467Z,71.70
2022-08-23T20:31:51.465Z,74.50
2022-08-23T20:34:18.301Z,74.20
2022-08-23T20:36:45.525Z,72.90
2022-08-23T20:39:12.554Z,74.80
2022-08-23T20:41:40.679Z,75.10
2022-08-23T20:44:08.992Z,73.70
2022-08-23T20:46:36.261Z,73.50
2022-08-23T20:49:04.446Z,72.40
2022-08-23T20:51:31.960Z,73.10
2022-08-23T20:54:05.129Z,73.70
2022-08-23T20:56:33.040Z,73.00
2022-08-23T20:59:00.246Z,73.40
2022-08-23T21:01:27.364Z,74.50
2022-08-23T21:03:54.157Z,75.40
2022-08-23T21:06:28.116Z,76.10
2022-08-23T21:08:57.724Z,77.20
2022-08-23T21:11:26.995Z,77.10
2022-08-23T21:13:58.507Z,77.60
2022-08-23T21:16:26.410Z,77.00
2022-08-23T21:18:54.419Z,76.80
2022-08-23T21:21:23.030Z,77.00
2022-08-23T21:23:50.418Z,76.90
2022-08-23T21:26:17.971Z,77.70
2022-08-23T21:28:44.932Z,78.30
2022-08-23T21:31:17.251Z,78.70
2022-08-23T21:33:45.083Z,78.00
2022-08-23T21:36:13.689Z,78.40
2022-08-23T21:38:40.661Z,78.30
2022-08-23T21:41:11.196Z,77.80
2022-08-23T21:43:38.552Z,78.50
2022-08-23T21:46:07.127Z,77.70
2022-08-23T21:48:34.338Z,77.50
2022-08-23T21:51:01.650Z,78.20
2022-08-23T21:53:28.473Z,78.30
2022-08-23T21:55:55.291Z,78.30
2022-08-23T21:58:22.082Z,78.60
2022-08-23T22:00:49.092Z,79.20
2022-08-23T22:03:15.959Z,79.90
2022-08-23T22:05:44.266Z,80.70
2022-08-23T22:08:14.468Z,81.60
2022-08-23T22:10:50.135Z,82.60
2022-08-23T22:13:25.940Z,82.90
2022-08-23T22:15:52.744Z,82.80
2022-08-23T22:18:19.569Z,83.30
2022-08-23T22:20:46.468Z,84.00
2022-08-23T22:23:13.174Z,84.80
2022-08-23T22:25:39.848Z,85.60
2022-08-23T22:28:06.588Z,85.60
2022-08-23T22:30:33.504Z,86.40
2022-08-23T22:33:00.259Z,87.00
2022-08-23T22:35:27.130Z,87.50
2022-08-23T22:38:12.817Z,88.20
2022-08-23T22:40:46.273Z,88.70
2022-08-23T22:43:13.030Z,89.40
2022-08-23T22:45:59.880Z,90.10
2022-08-23T22:48:29.482Z,90.60
2022-08-23T22:51:15.369Z,91.00
2022-08-23T22:53:48.207Z,91.40
2022-08-23T22:56:17.941Z,91.80
2022-08-23T22:58:45.401Z,92.50
2022-08-23T23:01:23.536Z,93.00
2022-08-23T23:03:52.196Z,93.30
2022-08-23T23:06:20.003Z,93.50
2022-08-23T23:08:47.256Z,93.60
2022-08-23T23:11:15.446Z,94.00
2022-08-23T23:13:42.518Z,94.20
2022-08-23T23:16:15.708Z,94.60
2022-08-23T23:19:03.959Z,94.60
2022-08-23T23:21:35.599Z,95.00
2022-08-23T23:24:02.559Z,95.30
2022-08-23T23:26:29.612Z,95.90
2022-08-23T23:28:56.752Z,95.60
2022-08-23T23:31:23.709Z,95.90
2022-08-23T23:33:50.784Z,96.10
2022-08-23T23:36:17.608Z,96.90
2022-08-23T23:38:44.903Z,96.60
2022-08-23T23:41:12.282Z,96.90
2022-08-23T23:43:39.875Z,97.20
2022-08-23T23:46:13.115Z,97.70
2022-08-23T23:48:42.102Z,98.10
2022-08-23T23:51:25.737Z,98.00
2022-08-23T23:53:54.248Z,97.90
2022-08-23T23:56:24.708Z,98.40
2022-08-23T23:58:53.574Z,98.70
